Sanostee, NM

5:08 PM MDT on September 20, 2014 (GMT -0600)
Four Corners Regional | Change Station
CLOSE
Current Station
Airport
Location: Farmington,
Elevation: 5502 ft
Nearby Weather Stations

Elev 5502 ft 36.74 °N, 108.23 °W | Updated 15 minutes ago

Partly Cloudy
Partly Cloudy
87 °F
Feels Like 87 °F
N
7
Wind Variable Wind from South

Today
High -- | Low -- °F
--% Chance of Precip.
Yesterday
High -- | Low -- °F
Precip. -- in
7:01 AM 7:15 PM
Waning Crescent, 10% visible
Pressure 29.88 in
Visibility 10.0 miles
Clouds Few 11000 ft
Dew Point 35 °F
Humidity 16%
Rainfall 0.00 in
Snow Depth 1 in , 1 in
UV 2 out of 12
Pollen 6.30 out of 12
Air Quality Not available.
Flu Activity Not available.
METAR KFMN 202253Z 17006KT 10SM FEW110 31/02 A3006 RMK AO2 SLP116 T03060017

More Conditions Fewer Conditions

Pressure 29.88 in
Visibility 10.0 miles
Clouds Few 11000 ft
Dew Point 35 °F
Humidity 16%
Rainfall 0.00 in
Snow Depth 1 in , 1 in
UV 2 out of 12
Pollen 6.30 out of 12
Air Quality Not available.
Flu Activity Not available.
METAR KFMN 202253Z 17006KT 10SM FEW110 31/02 A3006 RMK AO2 SLP116 T03060017

More Conditions Fewer Conditions

Nowcast | as of 3:58 PM MDT on September 20, 2014

Isolated showers and thunderstorms will continue over western New Mexico throughout the remainder of the afternoon. These storms will be capable of producing torrential rain at a rate of one to two inches an hour...wind gusts to 45 mph...one half inch hail and dangerous cloud to ground lightning. Movement will be to the northeast at only 10 mph. Locations impacted through 6 PM include the Miller and Whitewater Baldy burn scars...Glenwood...Reserve... Quemado Lake...Fence Lake...Ojo Caliente...Counselor...Dulce and Farmington.

×

10-Day Weather Forecast

Almanac

Astronomy

Sep. 20, 2014 Rise Set
Actual Time 7:01 AM MDT 7:15 PM MDT
Civil Twilight 6:36 AM MDT 7:40 PM MDT
Nautical Twilight 6:05 AM MDT 8:11 PM MDT
Astronomical Twilight 5:35 AM MDT 8:41 PM MDT
Moon 3:48 AM MDT 5:16 PM MDT
Length of Visible Light 13h 04m
Length of Day
12h 13m
Tomorrow will be 2m 19s shorter.
Waning Crescent, 10% of the Moon is Illuminated
Today
Waning Crescent
Sep 24
New
Oct 1
First Quarter
Oct 8
Full
Oct 15
Last Quarter

Today's Extremes

State Highs State Lows

Community

WunderPhotos

Upload Photos

1,754,972 photos uploaded!

WunderBlogs® & News

Nearby

Snow Depth

Station Depth Elevation
Silver Creek Divide 1 in 9000 ft
Wesner Springs 2 in 11120 ft
Sierra Blanca 1 in 10280 ft

Earthquake Activity

City Distance Mag. Time & Date
No recent earthquake activity has been reported nearby.
Minimum magnitude displayed is 2.5.

Coastal Water Temperatures

Place Temperature
No Stations Reporting

Nearby Weather Stations